createdAt,value
2022-07-28T00:00:42.012Z,41.72
2022-07-28T00:03:08.659Z,41.90
2022-07-28T00:05:36.069Z,42.37
2022-07-28T00:08:02.489Z,41.23
2022-07-28T00:10:29.279Z,41.60
2022-07-28T00:12:55.758Z,41.39
2022-07-28T00:15:22.282Z,41.09
2022-07-28T00:17:49.701Z,41.94
2022-07-28T00:20:16.123Z,40.70
2022-07-28T00:22:43.997Z,41.48
2022-07-28T00:25:11.491Z,41.32
2022-07-28T00:27:38.604Z,40.94
2022-07-28T00:30:08.891Z,40.97
2022-07-28T00:32:35.640Z,41.26
2022-07-28T00:35:02.498Z,41.02
2022-07-28T00:37:29.158Z,41.17
2022-07-28T00:39:56.034Z,40.93
2022-07-28T00:42:22.674Z,40.76
2022-07-28T00:44:49.559Z,40.47
2022-07-28T00:47:15.995Z,41.40
2022-07-28T00:49:44.742Z,40.87
2022-07-28T00:52:12.623Z,41.74
2022-07-28T00:54:39.202Z,42.41
2022-07-28T00:57:05.730Z,42.02
2022-07-28T00:59:33.585Z,41.65
2022-07-28T01:02:02.083Z,41.47
2022-07-28T01:04:29.806Z,41.74
2022-07-28T01:07:14.587Z,41.68
2022-07-28T01:09:59.901Z,41.47
2022-07-28T01:12:37.197Z,41.63
2022-07-28T01:15:22.375Z,42.13
2022-07-28T01:17:59.183Z,42.57
2022-07-28T01:20:38.884Z,42.31
2022-07-28T01:23:20.752Z,42.68
2022-07-28T01:26:10.243Z,43.44
2022-07-28T01:28:52.468Z,42.55
2022-07-28T01:31:25.682Z,43.31
2022-07-28T01:34:00.358Z,42.63
2022-07-28T01:36:32.794Z,43.24
2022-07-28T01:39:01.339Z,42.75
2022-07-28T01:41:31.409Z,42.99
2022-07-28T01:44:05.881Z,42.61
2022-07-28T01:46:34.090Z,42.96
2022-07-28T01:49:02.428Z,42.92
2022-07-28T01:51:32.530Z,43.24
2022-07-28T01:54:01.445Z,42.90
2022-07-28T01:56:30.716Z,43.41
2022-07-28T01:59:00.232Z,42.60
2022-07-28T02:01:28.094Z,43.02
2022-07-28T02:03:56.370Z,43.59
2022-07-28T02:06:23.641Z,43.15
2022-07-28T02:08:53.143Z,42.96
2022-07-28T02:11:38.285Z,43.23
2022-07-28T02:14:06.478Z,43.74
2022-07-28T02:16:32.912Z,43.68
2022-07-28T02:19:00.685Z,43.76
2022-07-28T02:21:31.086Z,44.47
2022-07-28T02:23:59.765Z,43.86
2022-07-28T02:26:35.345Z,43.61
2022-07-28T02:29:04.913Z,44.19
2022-07-28T02:31:51.618Z,44.31
2022-07-28T02:34:27.620Z,43.82
2022-07-28T02:36:57.833Z,44.05
2022-07-28T02:39:30.293Z,44.80
2022-07-28T02:42:10.558Z,44.29
2022-07-28T02:44:43.634Z,44.17
2022-07-28T02:47:12.616Z,44.58
2022-07-28T02:49:41.738Z,44.95
2022-07-28T02:52:10.068Z,44.48
2022-07-28T02:54:37.601Z,45.02
2022-07-28T02:57:05.335Z,45.16
2022-07-28T02:59:32.514Z,45.43
2022-07-28T03:01:59.535Z,45.22
2022-07-28T03:04:45.232Z,45.67
2022-07-28T03:07:12.515Z,45.72
2022-07-28T03:09:41.635Z,45.65
2022-07-28T03:12:09.742Z,45.25
2022-07-28T03:14:36.599Z,45.39
2022-07-28T03:17:03.746Z,45.55
2022-07-28T03:19:30.540Z,45.36
2022-07-28T03:21:57.017Z,46.02
2022-07-28T03:24:25.981Z,46.42
2022-07-28T03:27:18.850Z,46.61
2022-07-28T03:29:50.842Z,45.78
2022-07-28T03:32:20.294Z,46.80
2022-07-28T03:34:48.043Z,46.79
2022-07-28T03:37:18.787Z,46.53
2022-07-28T03:39:48.163Z,47.24
2022-07-28T03:42:18.642Z,47.04
2022-07-28T03:44:49.133Z,46.32
2022-07-28T03:47:20.322Z,47.05
2022-07-28T03:49:46.792Z,47.17
2022-07-28T03:52:13.323Z,46.33
2022-07-28T03:54:39.767Z,47.02
2022-07-28T03:57:06.170Z,46.84
2022-07-28T03:59:32.688Z,47.15
2022-07-28T04:01:59.460Z,47.17
2022-07-28T04:04:26.085Z,47.31
2022-07-28T04:06:52.579Z,47.91
2022-07-28T04:09:18.994Z,47.93
2022-07-28T04:11:45.431Z,47.53
2022-07-28T04:14:16.448Z,48.56
2022-07-28T04:16:44.270Z,48.41
2022-07-28T04:19:10.840Z,48.53
2022-07-28T04:21:37.243Z,48.54
2022-07-28T04:24:03.932Z,48.27
2022-07-28T04:26:30.423Z,48.56
2022-07-28T04:28:56.859Z,48.30
2022-07-28T04:31:32.137Z,48.78
2022-07-28T04:33:59.987Z,49.01
2022-07-28T04:36:26.537Z,48.91
2022-07-28T04:38:53.215Z,48.78
2022-07-28T04:41:20.364Z,48.65
2022-07-28T04:43:47.003Z,48.27
2022-07-28T04:46:15.274Z,48.71
2022-07-28T04:48:42.076Z,48.62
2022-07-28T04:51:08.555Z,48.74
2022-07-28T04:53:35.375Z,49.04
2022-07-28T04:56:01.805Z,48.60
2022-07-28T04:58:30.949Z,48.51
2022-07-28T05:00:57.743Z,49.17
2022-07-28T05:03:24.257Z,49.32
2022-07-28T05:05:54.008Z,49.81
2022-07-28T05:08:21.834Z,49.40
2022-07-28T05:10:51.855Z,49.10
2022-07-28T05:13:18.274Z,49.06
2022-07-28T05:15:44.690Z,49.86
2022-07-28T05:18:11.108Z,49.57
2022-07-28T05:20:37.519Z,50.07
2022-07-28T05:23:04.518Z,49.69
2022-07-28T05:25:31.012Z,49.10
2022-07-28T05:27:57.520Z,48.56
2022-07-28T05:30:24.127Z,49.63
2022-07-28T05:32:51.082Z,48.55
2022-07-28T05:35:17.605Z,49.11
2022-07-28T05:37:44.253Z,48.71
2022-07-28T05:40:14.093Z,48.53
2022-07-28T05:42:44.763Z,49.40
2022-07-28T05:45:16.467Z,48.75
2022-07-28T05:47:48.280Z,48.85
2022-07-28T05:50:17.181Z,48.38
2022-07-28T05:52:44.238Z,48.71
2022-07-28T05:55:11.076Z,49.21
2022-07-28T05:57:38.149Z,48.50
2022-07-28T06:00:10.353Z,48.61
2022-07-28T06:02:37.302Z,48.81
2022-07-28T06:05:06.485Z,48.83
2022-07-28T06:07:43.375Z,48.75
2022-07-28T06:10:12.435Z,48.78
2022-07-28T06:12:40.953Z,48.25
2022-07-28T06:15:11.828Z,48.23
2022-07-28T06:17:38.597Z,48.30
2022-07-28T06:20:05.638Z,48.65
2022-07-28T06:22:45.504Z,49.20
2022-07-28T06:25:20.053Z,48.38
2022-07-28T06:27:48.096Z,48.79
2022-07-28T06:30:14.969Z,48.65
2022-07-28T06:32:42.057Z,48.02
2022-07-28T06:35:09.307Z,48.40
2022-07-28T06:37:35.811Z,48.16
2022-07-28T06:40:02.757Z,47.85
2022-07-28T06:42:29.231Z,47.64
2022-07-28T06:44:59.459Z,48.24
2022-07-28T06:47:27.036Z,48.28
2022-07-28T06:49:53.482Z,48.58
2022-07-28T06:52:20.761Z,47.60
2022-07-28T06:54:48.694Z,47.85
2022-07-28T06:57:15.443Z,47.58
2022-07-28T06:59:43.420Z,47.79
2022-07-28T07:02:09.914Z,47.78
2022-07-28T07:04:36.616Z,47.72
2022-07-28T07:07:03.815Z,47.30
2022-07-28T07:09:41.448Z,47.72
2022-07-28T07:12:07.890Z,47.78
2022-07-28T07:14:34.342Z,47.35
2022-07-28T07:17:00.785Z,47.72
2022-07-28T07:19:27.192Z,47.47
2022-07-28T07:21:53.676Z,47.54
2022-07-28T07:24:20.108Z,47.44
2022-07-28T07:26:48.879Z,46.29
2022-07-28T07:29:15.429Z,46.89
2022-07-28T07:31:42.130Z,46.77
2022-07-28T07:34:08.637Z,46.95
2022-07-28T07:36:35.061Z,45.77
2022-07-28T07:39:01.534Z,46.62
2022-07-28T07:41:28.257Z,46.84
2022-07-28T07:43:57.165Z,46.42
2022-07-28T07:46:25.631Z,46.61
2022-07-28T07:48:52.138Z,45.89
2022-07-28T07:51:18.577Z,45.68
2022-07-28T07:53:44.974Z,45.99
2022-07-28T07:56:11.610Z,45.93
2022-07-28T07:58:38.036Z,45.74
2022-07-28T08:01:04.470Z,45.93
2022-07-28T08:03:30.925Z,45.26
2022-07-28T08:05:59.388Z,44.85
2022-07-28T08:08:26.624Z,45.29
2022-07-28T08:10:54.179Z,44.52
2022-07-28T08:13:21.087Z,45.15
2022-07-28T08:15:47.614Z,45.18
2022-07-28T08:18:14.207Z,44.51
2022-07-28T08:20:41.755Z,43.50
2022-07-28T08:23:08.206Z,44.19
2022-07-28T08:25:38.438Z,43.69
2022-07-28T08:28:05.141Z,43.24
2022-07-28T08:30:32.967Z,43.56
2022-07-28T08:33:00.284Z,42.51
2022-07-28T08:35:35.369Z,41.78
2022-07-28T08:38:06.313Z,41.84
2022-07-28T08:40:35.006Z,41.27
2022-07-28T08:43:16.408Z,41.46
2022-07-28T08:45:47.030Z,40.81
2022-07-28T08:48:14.465Z,40.77
2022-07-28T08:50:43.933Z,40.49
2022-07-28T08:53:10.751Z,39.89
2022-07-28T08:55:37.863Z,40.71
2022-07-28T08:58:04.599Z,40.26
2022-07-28T09:00:31.398Z,39.59
2022-07-28T09:02:58.316Z,39.38
2022-07-28T09:05:24.982Z,38.38
2022-07-28T09:07:55.331Z,38.94
2022-07-28T09:10:22.646Z,39.02
2022-07-28T09:12:49.150Z,37.76
2022-07-28T09:15:15.810Z,37.71
2022-07-28T09:17:42.822Z,38.12
2022-07-28T09:20:11.593Z,38.09
2022-07-28T09:22:55.677Z,38.42
2022-07-28T09:25:22.495Z,37.71
2022-07-28T09:27:49.067Z,36.81
2022-07-28T09:30:15.473Z,36.44
2022-07-28T09:32:41.884Z,37.00
2022-07-28T09:35:19.721Z,36.70
2022-07-28T09:37:46.440Z,36.10
2022-07-28T09:40:13.805Z,36.05
2022-07-28T09:42:50.078Z,35.73
2022-07-28T09:45:24.919Z,36.50
2022-07-28T09:48:12.609Z,35.68
2022-07-28T09:50:43.224Z,34.94
2022-07-28T09:53:23.917Z,34.90
2022-07-28T09:55:58.572Z,34.55
2022-07-28T09:58:26.654Z,35.51
2022-07-28T10:01:12.312Z,34.79
2022-07-28T10:03:41.541Z,34.16
2022-07-28T10:06:13.777Z,34.34
2022-07-28T10:08:42.110Z,33.75
2022-07-28T10:11:10.927Z,33.65
2022-07-28T10:14:09.080Z,33.86
2022-07-28T10:16:46.934Z,33.14
2022-07-28T10:19:13.344Z,33.78
2022-07-28T10:21:44.343Z,33.61
2022-07-28T10:24:20.048Z,32.57
2022-07-28T10:26:47.484Z,32.75
2022-07-28T10:29:16.566Z,32.70
2022-07-28T10:32:09.548Z,32.06
2022-07-28T10:34:44.749Z,32.22
2022-07-28T10:37:18.899Z,31.87
2022-07-28T10:39:55.480Z,31.91
2022-07-28T10:42:22.159Z,32.03
2022-07-28T10:44:49.751Z,31.92
2022-07-28T10:47:18.079Z,31.58
2022-07-28T10:49:48.550Z,31.95
2022-07-28T10:52:37.752Z,31.36
2022-07-28T10:55:31.885Z,30.99
2022-07-28T10:58:25.258Z,31.50
2022-07-28T11:00:59.609Z,31.32
2022-07-28T11:03:47.076Z,30.16
2022-07-28T11:06:36.741Z,30.19
2022-07-28T11:09:18.372Z,29.36
2022-07-28T11:11:57.770Z,29.76
2022-07-28T11:14:39.523Z,29.99
2022-07-28T11:17:10.104Z,29.56
2022-07-28T11:20:06.835Z,29.41
2022-07-28T11:22:31.976Z,29.59
2022-07-28T11:25:20.833Z,29.35
2022-07-28T11:27:54.204Z,29.95
2022-07-28T11:30:32.708Z,29.52
2022-07-28T11:33:00.173Z,29.59
2022-07-28T11:35:28.024Z,29.44
2022-07-28T11:38:00.459Z,29.32
2022-07-28T11:40:35.276Z,28.59
2022-07-28T11:43:33.980Z,28.34
2022-07-28T11:46:04.529Z,28.58
2022-07-28T11:48:31.474Z,28.58
2022-07-28T11:51:04.117Z,28.38
2022-07-28T11:53:34.729Z,27.64
2022-07-28T11:56:06.114Z,28.18
2022-07-28T11:58:32.633Z,28.77
2022-07-28T12:01:32.372Z,28.43
2022-07-28T12:04:13.262Z,28.31
2022-07-28T12:06:40.854Z,27.77
2022-07-28T12:09:09.923Z,28.24
2022-07-28T12:11:45.653Z,28.54
2022-07-28T12:14:17.574Z,27.93
2022-07-28T12:16:49.192Z,28.13
2022-07-28T12:19:17.126Z,28.71
2022-07-28T12:21:45.748Z,28.88
2022-07-28T12:24:16.113Z,29.18
2022-07-28T12:26:43.644Z,28.32
2022-07-28T12:29:14.459Z,28.84
2022-07-28T12:31:58.954Z,28.76
2022-07-28T12:34:29.337Z,28.64
2022-07-28T12:36:57.877Z,29.05
2022-07-28T12:39:25.721Z,28.72
2022-07-28T12:42:12.114Z,28.52
2022-07-28T12:44:43.760Z,28.11
2022-07-28T12:47:12.558Z,28.09
2022-07-28T12:49:42.755Z,28.73
2022-07-28T12:52:16.970Z,28.48
2022-07-28T12:54:43.461Z,27.38
2022-07-28T12:57:48.601Z,27.48
2022-07-28T13:00:19.306Z,28.02
2022-07-28T13:02:46.659Z,27.53
2022-07-28T13:05:55.453Z,26.55
2022-07-28T13:08:23.527Z,27.23
2022-07-28T13:10:55.605Z,27.38
2022-07-28T13:13:23.801Z,27.03
2022-07-28T13:16:13.515Z,27.13
2022-07-28T13:18:41.974Z,27.42
2022-07-28T13:23:51.949Z,26.81
2022-07-28T13:26:18.370Z,26.42
2022-07-28T13:28:44.766Z,26.72
2022-07-28T13:31:11.282Z,27.15
2022-07-28T13:33:37.760Z,25.62
2022-07-28T13:36:04.339Z,26.42
2022-07-28T13:38:31.138Z,27.23
2022-07-28T13:40:57.593Z,25.90
2022-07-28T13:43:23.983Z,25.96
2022-07-28T13:46:03.163Z,26.76
2022-07-28T13:48:32.737Z,26.76
2022-07-28T13:51:00.083Z,26.67
2022-07-28T13:53:27.102Z,26.51
2022-07-28T13:55:53.619Z,25.92
2022-07-28T13:58:20.082Z,27.27
2022-07-28T14:00:49.360Z,26.80
2022-07-28T14:03:15.980Z,26.28
2022-07-28T14:05:42.479Z,27.03
2022-07-28T14:08:09.434Z,27.20
2022-07-28T14:10:36.914Z,28.11
2022-07-28T14:13:03.456Z,28.96
2022-07-28T14:15:29.969Z,28.04
2022-07-28T14:17:56.466Z,27.43
2022-07-28T14:20:22.960Z,27.28
2022-07-28T14:22:50.392Z,27.21
2022-07-28T14:25:20.643Z,27.32
2022-07-28T14:27:47.855Z,27.71
2022-07-28T14:30:14.281Z,27.87
2022-07-28T14:32:40.666Z,28.27
2022-07-28T14:35:07.509Z,27.42
2022-07-28T14:37:47.429Z,28.12
2022-07-28T14:40:20.407Z,27.92
2022-07-28T14:42:46.879Z,27.58
2022-07-28T14:45:13.583Z,27.82
2022-07-28T14:47:44.877Z,28.64
2022-07-28T14:50:12.667Z,28.44
2022-07-28T14:52:39.173Z,28.62
2022-07-28T14:55:06.249Z,28.47
2022-07-28T14:57:51.796Z,28.60
2022-07-28T15:00:20.621Z,29.15
2022-07-28T15:02:47.646Z,29.39
2022-07-28T15:05:14.369Z,29.13
2022-07-28T15:07:42.246Z,29.13
2022-07-28T15:10:10.268Z,28.29
2022-07-28T15:12:37.108Z,28.79
2022-07-28T15:15:04.348Z,29.25
2022-07-28T15:17:30.874Z,28.71
2022-07-28T15:19:57.682Z,28.33
2022-07-28T15:22:26.349Z,28.21
2022-07-28T15:24:53.166Z,27.91
2022-07-28T15:27:19.580Z,27.58
2022-07-28T15:29:47.482Z,27.92
2022-07-28T15:32:18.550Z,28.16
2022-07-28T15:34:48.587Z,28.96
2022-07-28T15:37:16.033Z,28.55
2022-07-28T15:39:45.193Z,28.58
2022-07-28T15:42:11.882Z,28.47
2022-07-28T15:44:38.367Z,28.11
2022-07-28T15:47:04.970Z,28.49
2022-07-28T15:49:31.538Z,28.62
2022-07-28T15:52:00.785Z,28.92
2022-07-28T15:54:27.781Z,28.82
2022-07-28T15:56:54.155Z,29.03
2022-07-28T15:59:20.649Z,28.98
2022-07-28T16:01:47.069Z,28.21
2022-07-28T16:04:13.806Z,28.08
2022-07-28T16:06:59.269Z,28.32
2022-07-28T16:09:45.735Z,29.02
2022-07-28T16:12:14.345Z,28.41
2022-07-28T16:14:42.173Z,28.73
2022-07-28T16:17:09.765Z,28.19
2022-07-28T16:19:48.346Z,28.35
2022-07-28T16:22:16.245Z,28.32
2022-07-28T16:24:42.783Z,27.94
2022-07-28T16:27:09.235Z,27.88
2022-07-28T16:29:35.676Z,28.49
2022-07-28T16:32:05.091Z,28.20
2022-07-28T16:34:31.498Z,28.61
2022-07-28T16:36:58.114Z,28.86
2022-07-28T16:39:24.556Z,29.01
2022-07-28T16:41:52.777Z,29.24
2022-07-28T16:44:20.134Z,29.01
2022-07-28T16:46:46.675Z,28.82
2022-07-28T16:49:16.165Z,29.12
2022-07-28T16:51:42.881Z,29.22
2022-07-28T16:54:09.380Z,29.17
2022-07-28T16:56:35.866Z,29.75
2022-07-28T16:59:02.593Z,29.13
2022-07-28T17:01:29.034Z,29.40
2022-07-28T17:03:55.516Z,29.35
2022-07-28T17:06:22.029Z,29.78
2022-07-28T17:08:48.423Z,29.61
2022-07-28T17:11:15.809Z,29.20
2022-07-28T17:13:45.443Z,29.45
2022-07-28T17:16:12.921Z,30.28
2022-07-28T17:18:39.694Z,30.19
2022-07-28T17:21:06.350Z,30.07
2022-07-28T17:23:34.610Z,30.70
2022-07-28T17:26:52.637Z,30.61
2022-07-28T17:28:51.396Z,30.29
2022-07-28T17:31:18.160Z,30.47
2022-07-28T17:33:44.561Z,30.26
2022-07-28T17:36:11.023Z,30.68
2022-07-28T17:38:37.484Z,30.75
2022-07-28T17:41:04.493Z,30.54
2022-07-28T17:43:32.300Z,30.91
2022-07-28T17:45:58.869Z,31.07
2022-07-28T17:48:28.389Z,31.07
2022-07-28T17:50:54.861Z,31.15
2022-07-28T17:53:21.269Z,31.38
2022-07-28T17:56:00.085Z,31.58
2022-07-28T17:58:32.316Z,31.50
2022-07-28T18:01:10.653Z,31.36
2022-07-28T18:03:57.967Z,31.41
2022-07-28T18:06:33.545Z,30.93
2022-07-28T18:09:06.005Z,30.78
2022-07-28T18:11:55.401Z,31.07
2022-07-28T18:14:26.484Z,31.55
2022-07-28T18:16:52.997Z,31.25
2022-07-28T18:19:19.475Z,30.97
2022-07-28T18:21:45.859Z,31.44
2022-07-28T18:24:12.407Z,31.87
2022-07-28T18:26:39.082Z,32.00
2022-07-28T18:29:05.462Z,32.44
2022-07-28T18:31:32.109Z,32.04
2022-07-28T18:33:58.649Z,31.98
2022-07-28T18:36:25.393Z,31.64
2022-07-28T18:38:51.789Z,31.53
2022-07-28T18:41:18.234Z,31.30
2022-07-28T18:43:44.625Z,31.64
2022-07-28T18:46:11.083Z,31.17
2022-07-28T18:48:38.007Z,31.91
2022-07-28T18:51:04.791Z,31.26
2022-07-28T18:53:31.252Z,31.70
2022-07-28T18:55:58.033Z,31.81
2022-07-28T18:58:24.490Z,32.14
2022-07-28T19:00:50.955Z,32.05
2022-07-28T19:03:17.397Z,32.52
2022-07-28T19:05:46.105Z,32.52
2022-07-28T19:08:13.057Z,32.19
2022-07-28T19:10:39.559Z,32.36
2022-07-28T19:13:06.065Z,32.28
2022-07-28T19:15:40.476Z,32.66
2022-07-28T19:18:11.384Z,32.52
2022-07-28T19:20:43.936Z,32.58
2022-07-28T19:23:10.550Z,33.18
2022-07-28T19:25:39.228Z,33.03
2022-07-28T19:28:06.474Z,33.13
2022-07-28T19:30:33.189Z,33.41
2022-07-28T19:33:00.209Z,33.27
2022-07-28T19:35:26.805Z,33.01
2022-07-28T19:37:53.361Z,33.33
2022-07-28T19:40:19.950Z,33.10
2022-07-28T19:42:48.367Z,33.53
2022-07-28T19:45:15.036Z,33.90
2022-07-28T19:47:42.179Z,33.90
2022-07-28T19:50:08.833Z,34.18
2022-07-28T19:52:35.730Z,34.56
2022-07-28T19:55:05.248Z,34.59
2022-07-28T19:57:33.127Z,34.29
2022-07-28T19:59:59.755Z,34.52
2022-07-28T20:02:26.226Z,34.49
2022-07-28T20:04:52.695Z,34.54
2022-07-28T20:07:19.135Z,34.53
2022-07-28T20:09:45.546Z,34.99
2022-07-28T20:12:12.083Z,34.88
2022-07-28T20:14:38.513Z,34.86
2022-07-28T20:17:05.413Z,34.51
2022-07-28T20:19:34.040Z,34.42
2022-07-28T20:22:00.458Z,34.67
2022-07-28T20:24:26.977Z,34.72
2022-07-28T20:26:53.441Z,34.31
2022-07-28T20:29:19.830Z,34.95
2022-07-28T20:31:46.277Z,34.95
2022-07-28T20:34:13.169Z,35.25
2022-07-28T20:36:39.926Z,35.29
2022-07-28T20:39:27.377Z,34.84
2022-07-28T20:42:01.156Z,34.52
2022-07-28T20:44:29.272Z,34.23
2022-07-28T20:47:00.423Z,34.57
2022-07-28T20:49:29.654Z,34.19
2022-07-28T20:51:57.738Z,34.94
2022-07-28T20:54:25.196Z,34.42
2022-07-28T20:56:51.835Z,34.85
2022-07-28T20:59:18.283Z,34.81
2022-07-28T21:01:44.905Z,35.55
2022-07-28T21:04:11.892Z,35.68
2022-07-28T21:06:39.659Z,35.51
2022-07-28T21:09:17.995Z,35.88
2022-07-28T21:11:44.522Z,35.66
2022-07-28T21:14:10.921Z,35.20
2022-07-28T21:16:37.387Z,35.58
2022-07-28T21:19:04.406Z,35.82
2022-07-28T21:21:30.830Z,35.89
2022-07-28T21:23:57.343Z,36.29
2022-07-28T21:26:23.942Z,36.65
2022-07-28T21:29:09.044Z,36.37
2022-07-28T21:31:35.541Z,36.35
2022-07-28T21:34:22.017Z,36.46
2022-07-28T21:36:48.445Z,36.13
2022-07-28T21:39:15.014Z,36.09
2022-07-28T21:41:41.461Z,36.30
2022-07-28T21:44:07.947Z,35.90
2022-07-28T21:46:39.458Z,35.73
2022-07-28T21:49:06.298Z,36.22
2022-07-28T21:51:32.899Z,35.87
2022-07-28T21:54:00.028Z,36.35
2022-07-28T21:56:27.610Z,36.03
2022-07-28T21:58:54.240Z,35.87
2022-07-28T22:01:20.760Z,36.34
2022-07-28T22:03:47.398Z,36.41
2022-07-28T22:06:13.815Z,36.26
2022-07-28T22:08:40.245Z,36.50
2022-07-28T22:11:07.035Z,36.26
2022-07-28T22:13:33.495Z,36.22
2022-07-28T22:15:59.905Z,36.13
2022-07-28T22:18:26.384Z,36.66
2022-07-28T22:20:52.800Z,36.45
2022-07-28T22:23:28.799Z,37.01
2022-07-28T22:25:55.847Z,37.14
2022-07-28T22:28:29.853Z,37.14
2022-07-28T22:30:57.503Z,37.21
2022-07-28T22:33:24.022Z,37.10
2022-07-28T22:35:51.342Z,37.34
2022-07-28T22:38:18.082Z,37.30
2022-07-28T22:40:44.620Z,37.28
2022-07-28T22:43:11.101Z,37.16
2022-07-28T22:45:50.488Z,37.36
2022-07-28T22:48:17.619Z,37.18
2022-07-28T22:50:44.453Z,37.07
2022-07-28T22:53:10.886Z,37.18
2022-07-28T22:55:37.284Z,37.05
2022-07-28T22:58:05.745Z,37.11
2022-07-28T23:00:32.783Z,37.12
2022-07-28T23:03:02.687Z,37.33
2022-07-28T23:05:30.526Z,37.45
2022-07-28T23:07:57.656Z,37.41
2022-07-28T23:10:25.769Z,37.71
2022-07-28T23:12:52.258Z,37.48
2022-07-28T23:15:18.747Z,37.83
2022-07-28T23:17:45.206Z,37.57
2022-07-28T23:20:11.893Z,37.57
2022-07-28T23:22:38.327Z,37.88
2022-07-28T23:25:05.251Z,37.62
2022-07-28T23:27:31.750Z,37.91
2022-07-28T23:29:58.162Z,38.21
2022-07-28T23:32:24.558Z,38.08
2022-07-28T23:34:51.011Z,38.43
2022-07-28T23:37:17.525Z,38.43
2022-07-28T23:39:43.986Z,38.74
2022-07-28T23:42:10.560Z,38.32
2022-07-28T23:44:37.994Z,38.53
2022-07-28T23:47:04.571Z,38.56
2022-07-28T23:49:31.253Z,38.45
2022-07-28T23:51:57.692Z,38.39
2022-07-28T23:54:24.130Z,38.54
2022-07-28T23:56:51.730Z,39.11
2022-07-28T23:59:18.194Z,38.75
